Rillton, Pennsylvania
Current Conditions -  °F | °C
As of 9:20 AM on Monday 26 Jan 2015 (Local Time) from KAGC Reporting Station
Light Snow Light Snow  
Wind Chill: 24°   Ceiling: 400
Heat Index: 29°   Visibility: 0.5mi
Dew Point: 25°   Wind: 5mph
Humidity: 85%   Direction: NA
Pressure: 29.67"   Gusts: NA
Location:  40.29°N, 79.73°W
Report Text: KAGC 261420Z AUTO VRB04KT 1/2SM R28/4500V6000FT -SN FZFG BKN004 OVC026 M02/M04 A2967 RMK AO2 P0001 T10171039 TSNO
Loading
Personal Weather Stations






























Interactive Weather Map New forecast layout! Learn more

10-Day Weather Forecast

Advertisements
Track Severe Weather on mobile